sensor_id;sensor_type;location;lat;lon;timestamp;temperature;humidity
52675;DHT22;38569;52.722;6.440;2023-03-14T00:01:14;10.90;99.90
52675;DHT22;38569;52.722;6.440;2023-03-14T00:03:40;11.00;99.90
52675;DHT22;38569;52.722;6.440;2023-03-14T00:06:06;11.00;99.90
52675;DHT22;38569;52.722;6.440;2023-03-14T00:08:32;11.10;99.90
52675;DHT22;38569;52.722;6.440;2023-03-14T00:11:03;11.10;99.90
52675;DHT22;38569;52.722;6.440;2023-03-14T00:13:29;11.10;99.90
52675;DHT22;38569;52.722;6.440;2023-03-14T00:15:54;11.10;99.90
52675;DHT22;38569;52.722;6.440;2023-03-14T00:18:20;11.10;99.90
52675;DHT22;38569;52.722;6.440;2023-03-14T00:20:45;11.20;99.90
52675;DHT22;38569;52.722;6.440;2023-03-14T00:23:11;11.20;99.90
52675;DHT22;38569;52.722;6.440;2023-03-14T00:25:37;11.20;99.90
52675;DHT22;38569;52.722;6.440;2023-03-14T00:28:03;11.20;99.90
52675;DHT22;38569;52.722;6.440;2023-03-14T00:30:28;11.20;99.90
52675;DHT22;38569;52.722;6.440;2023-03-14T00:32:54;11.20;99.90
52675;DHT22;38569;52.722;6.440;2023-03-14T00:35:20;11.20;99.90
52675;DHT22;38569;52.722;6.440;2023-03-14T00:37:45;11.20;99.90
52675;DHT22;38569;52.722;6.440;2023-03-14T00:40:11;11.20;99.90
52675;DHT22;38569;52.722;6.440;2023-03-14T00:42:37;11.20;99.90
52675;DHT22;38569;52.722;6.440;2023-03-14T00:45:03;11.10;99.90
52675;DHT22;38569;52.722;6.440;2023-03-14T00:47:29;11.10;99.90
52675;DHT22;38569;52.722;6.440;2023-03-14T00:49:55;11.00;99.90
52675;DHT22;38569;52.722;6.440;2023-03-14T00:52:20;11.00;99.90
52675;DHT22;38569;52.722;6.440;2023-03-14T00:54:46;11.00;99.90
52675;DHT22;38569;52.722;6.440;2023-03-14T00:57:12;10.90;99.90
52675;DHT22;38569;52.722;6.440;2023-03-14T00:59:37;10.90;99.90
52675;DHT22;38569;52.722;6.440;2023-03-14T01:02:03;10.90;99.90
52675;DHT22;38569;52.722;6.440;2023-03-14T01:04:29;10.90;99.90
52675;DHT22;38569;52.722;6.440;2023-03-14T01:06:55;10.80;99.90
52675;DHT22;38569;52.722;6.440;2023-03-14T01:09:21;10.70;99.90
52675;DHT22;38569;52.722;6.440;2023-03-14T01:11:47;10.70;99.90
52675;DHT22;38569;52.722;6.440;2023-03-14T01:14:13;10.70;99.90
52675;DHT22;38569;52.722;6.440;2023-03-14T01:16:39;10.80;99.90
52675;DHT22;38569;52.722;6.440;2023-03-14T01:19:04;10.80;99.90
52675;DHT22;38569;52.722;6.440;2023-03-14T01:21:33;10.90;99.90
52675;DHT22;38569;52.722;6.440;2023-03-14T01:24:00;10.90;99.90
52675;DHT22;38569;52.722;6.440;2023-03-14T01:26:28;10.90;99.90
52675;DHT22;38569;52.722;6.440;2023-03-14T01:28:55;10.90;99.90
52675;DHT22;38569;52.722;6.440;2023-03-14T01:31:22;10.90;99.90
52675;DHT22;38569;52.722;6.440;2023-03-14T01:33:48;10.80;99.90
52675;DHT22;38569;52.722;6.440;2023-03-14T01:36:14;10.80;99.90
52675;DHT22;38569;52.722;6.440;2023-03-14T01:38:40;10.70;99.90
52675;DHT22;38569;52.722;6.440;2023-03-14T01:41:07;10.70;99.90
52675;DHT22;38569;52.722;6.440;2023-03-14T01:43:33;10.60;99.90
52675;DHT22;38569;52.722;6.440;2023-03-14T01:48:40;10.60;99.90
52675;DHT22;38569;52.722;6.440;2023-03-14T01:51:11;10.50;99.90
52675;DHT22;38569;52.722;6.440;2023-03-14T01:53:39;10.50;99.90
52675;DHT22;38569;52.722;6.440;2023-03-14T01:56:09;10.50;99.90
52675;DHT22;38569;52.722;6.440;2023-03-14T01:58:37;10.50;99.90
52675;DHT22;38569;52.722;6.440;2023-03-14T02:01:05;10.50;99.90
52675;DHT22;38569;52.722;6.440;2023-03-14T02:03:37;10.60;99.90
52675;DHT22;38569;52.722;6.440;2023-03-14T02:06:06;10.70;99.90
52675;DHT22;38569;52.722;6.440;2023-03-14T02:08:33;10.70;99.90
52675;DHT22;38569;52.722;6.440;2023-03-14T02:11:00;10.70;99.90
52675;DHT22;38569;52.722;6.440;2023-03-14T02:13:26;10.70;99.90
52675;DHT22;38569;52.722;6.440;2023-03-14T02:15:52;10.70;99.90
52675;DHT22;38569;52.722;6.440;2023-03-14T02:18:18;10.70;99.90
52675;DHT22;38569;52.722;6.440;2023-03-14T02:26:34;10.50;99.90
52675;DHT22;38569;52.722;6.440;2023-03-14T02:29:02;10.40;99.90
52675;DHT22;38569;52.722;6.440;2023-03-14T02:31:28;10.40;99.90
52675;DHT22;38569;52.722;6.440;2023-03-14T02:33:55;10.30;99.90
52675;DHT22;38569;52.722;6.440;2023-03-14T02:36:22;10.20;99.90
52675;DHT22;38569;52.722;6.440;2023-03-14T02:39:08;10.10;99.90
52675;DHT22;38569;52.722;6.440;2023-03-14T02:41:35;10.10;99.90
52675;DHT22;38569;52.722;6.440;2023-03-14T02:44:01;10.00;99.90
52675;DHT22;38569;52.722;6.440;2023-03-14T02:46:27;10.00;99.90
52675;DHT22;38569;52.722;6.440;2023-03-14T02:49:01;10.00;99.90
52675;DHT22;38569;52.722;6.440;2023-03-14T02:51:27;9.90;99.90
52675;DHT22;38569;52.722;6.440;2023-03-14T02:53:53;9.80;99.90
52675;DHT22;38569;52.722;6.440;2023-03-14T02:56:18;9.60;99.90
52675;DHT22;38569;52.722;6.440;2023-03-14T02:58:44;9.60;99.90
52675;DHT22;38569;52.722;6.440;2023-03-14T03:01:10;9.50;99.90
52675;DHT22;38569;52.722;6.440;2023-03-14T03:03:36;9.50;99.90
52675;DHT22;38569;52.722;6.440;2023-03-14T03:06:02;9.50;99.90
52675;DHT22;38569;52.722;6.440;2023-03-14T03:08:28;9.50;99.90
52675;DHT22;38569;52.722;6.440;2023-03-14T03:10:54;9.40;99.90
52675;DHT22;38569;52.722;6.440;2023-03-14T03:13:21;9.50;99.90
52675;DHT22;38569;52.722;6.440;2023-03-14T03:15:47;9.50;99.90
52675;DHT22;38569;52.722;6.440;2023-03-14T03:18:13;9.50;99.90
52675;DHT22;38569;52.722;6.440;2023-03-14T03:20:39;9.50;99.90
52675;DHT22;38569;52.722;6.440;2023-03-14T03:23:04;9.50;99.90
52675;DHT22;38569;52.722;6.440;2023-03-14T03:25:30;9.50;99.90
52675;DHT22;38569;52.722;6.440;2023-03-14T03:27:56;9.50;99.90
52675;DHT22;38569;52.722;6.440;2023-03-14T03:30:22;9.60;99.90
52675;DHT22;38569;52.722;6.440;2023-03-14T03:32:48;9.60;99.90
52675;DHT22;38569;52.722;6.440;2023-03-14T03:35:14;9.60;99.90
52675;DHT22;38569;52.722;6.440;2023-03-14T03:37:40;9.60;99.90
52675;DHT22;38569;52.722;6.440;2023-03-14T03:40:07;9.60;99.90
52675;DHT22;38569;52.722;6.440;2023-03-14T03:42:33;9.50;99.90
52675;DHT22;38569;52.722;6.440;2023-03-14T03:45:00;9.50;99.90
52675;DHT22;38569;52.722;6.440;2023-03-14T03:47:26;9.50;99.90
52675;DHT22;38569;52.722;6.440;2023-03-14T03:49:52;9.60;99.90
52675;DHT22;38569;52.722;6.440;2023-03-14T03:52:18;9.60;99.90
52675;DHT22;38569;52.722;6.440;2023-03-14T03:54:44;9.60;99.90
52675;DHT22;38569;52.722;6.440;2023-03-14T03:57:10;9.60;99.90
52675;DHT22;38569;52.722;6.440;2023-03-14T03:59:35;9.70;99.90
52675;DHT22;38569;52.722;6.440;2023-03-14T04:02:01;9.70;99.90
52675;DHT22;38569;52.722;6.440;2023-03-14T04:04:27;9.60;99.90
52675;DHT22;38569;52.722;6.440;2023-03-14T04:06:53;9.60;99.90
52675;DHT22;38569;52.722;6.440;2023-03-14T04:09:18;9.50;99.90
52675;DHT22;38569;52.722;6.440;2023-03-14T04:11:44;9.50;99.90
52675;DHT22;38569;52.722;6.440;2023-03-14T04:14:10;9.40;99.90
52675;DHT22;38569;52.722;6.440;2023-03-14T04:16:35;9.40;99.90
52675;DHT22;38569;52.722;6.440;2023-03-14T04:19:02;9.30;99.90
52675;DHT22;38569;52.722;6.440;2023-03-14T04:21:28;9.30;99.90
52675;DHT22;38569;52.722;6.440;2023-03-14T04:23:54;9.30;99.90
52675;DHT22;38569;52.722;6.440;2023-03-14T04:26:20;9.20;99.90
52675;DHT22;38569;52.722;6.440;2023-03-14T04:28:46;9.20;99.90
52675;DHT22;38569;52.722;6.440;2023-03-14T04:31:17;9.20;99.90
52675;DHT22;38569;52.722;6.440;2023-03-14T04:33:44;9.20;99.90
52675;DHT22;38569;52.722;6.440;2023-03-14T04:36:10;9.20;99.90
52675;DHT22;38569;52.722;6.440;2023-03-14T04:38:36;9.20;99.90
52675;DHT22;38569;52.722;6.440;2023-03-14T04:41:02;9.20;99.90
52675;DHT22;38569;52.722;6.440;2023-03-14T04:43:28;9.20;99.90
52675;DHT22;38569;52.722;6.440;2023-03-14T04:45:56;9.20;99.90
52675;DHT22;38569;52.722;6.440;2023-03-14T04:48:22;9.30;99.90
52675;DHT22;38569;52.722;6.440;2023-03-14T04:50:48;9.30;99.90
52675;DHT22;38569;52.722;6.440;2023-03-14T04:53:16;9.30;99.90
52675;DHT22;38569;52.722;6.440;2023-03-14T04:55:42;9.40;99.90
52675;DHT22;38569;52.722;6.440;2023-03-14T04:58:08;9.40;99.90
52675;DHT22;38569;52.722;6.440;2023-03-14T05:00:33;9.40;99.90
52675;DHT22;38569;52.722;6.440;2023-03-14T05:02:59;9.50;99.90
52675;DHT22;38569;52.722;6.440;2023-03-14T05:05:25;9.50;99.90
52675;DHT22;38569;52.722;6.440;2023-03-14T05:07:51;9.60;99.90
52675;DHT22;38569;52.722;6.440;2023-03-14T05:10:17;9.60;99.90
52675;DHT22;38569;52.722;6.440;2023-03-14T05:12:42;9.60;99.90
52675;DHT22;38569;52.722;6.440;2023-03-14T05:15:09;9.60;99.90
52675;DHT22;38569;52.722;6.440;2023-03-14T05:17:35;9.60;99.90
52675;DHT22;38569;52.722;6.440;2023-03-14T05:20:01;9.60;99.90
52675;DHT22;38569;52.722;6.440;2023-03-14T05:22:26;9.50;99.90
52675;DHT22;38569;52.722;6.440;2023-03-14T05:24:52;9.50;99.90
52675;DHT22;38569;52.722;6.440;2023-03-14T05:27:22;9.50;99.90
52675;DHT22;38569;52.722;6.440;2023-03-14T05:29:48;9.50;99.90
52675;DHT22;38569;52.722;6.440;2023-03-14T05:32:14;9.30;99.90
52675;DHT22;38569;52.722;6.440;2023-03-14T05:34:39;9.30;99.90
52675;DHT22;38569;52.722;6.440;2023-03-14T05:37:05;9.30;99.90
52675;DHT22;38569;52.722;6.440;2023-03-14T05:39:31;9.20;99.90
52675;DHT22;38569;52.722;6.440;2023-03-14T05:41:56;9.20;99.90
52675;DHT22;38569;52.722;6.440;2023-03-14T05:44:22;9.10;99.90
52675;DHT22;38569;52.722;6.440;2023-03-14T05:46:48;9.10;99.90
52675;DHT22;38569;52.722;6.440;2023-03-14T05:49:14;9.10;99.90
52675;DHT22;38569;52.722;6.440;2023-03-14T05:51:39;9.00;99.90
52675;DHT22;38569;52.722;6.440;2023-03-14T05:54:05;9.00;99.90
52675;DHT22;38569;52.722;6.440;2023-03-14T05:56:31;9.00;99.90
52675;DHT22;38569;52.722;6.440;2023-03-14T05:58:57;9.00;99.90
52675;DHT22;38569;52.722;6.440;2023-03-14T06:01:23;9.00;99.90
52675;DHT22;38569;52.722;6.440;2023-03-14T06:03:49;8.90;99.90
52675;DHT22;38569;52.722;6.440;2023-03-14T06:06:14;9.00;99.90
52675;DHT22;38569;52.722;6.440;2023-03-14T06:08:42;9.00;99.90
52675;DHT22;38569;52.722;6.440;2023-03-14T06:11:07;9.00;99.90
52675;DHT22;38569;52.722;6.440;2023-03-14T06:13:33;8.90;99.90
52675;DHT22;38569;52.722;6.440;2023-03-14T06:15:59;8.90;99.90
52675;DHT22;38569;52.722;6.440;2023-03-14T06:18:25;8.90;99.90
52675;DHT22;38569;52.722;6.440;2023-03-14T06:20:54;8.90;99.90
52675;DHT22;38569;52.722;6.440;2023-03-14T06:23:21;8.90;99.90
52675;DHT22;38569;52.722;6.440;2023-03-14T06:25:46;8.90;99.90
52675;DHT22;38569;52.722;6.440;2023-03-14T06:28:12;8.90;99.90
52675;DHT22;38569;52.722;6.440;2023-03-14T06:30:38;8.90;99.90
52675;DHT22;38569;52.722;6.440;2023-03-14T06:33:04;8.90;99.90
52675;DHT22;38569;52.722;6.440;2023-03-14T06:35:29;8.90;99.90
52675;DHT22;38569;52.722;6.440;2023-03-14T06:37:55;8.90;99.90
52675;DHT22;38569;52.722;6.440;2023-03-14T06:40:21;8.90;99.90
52675;DHT22;38569;52.722;6.440;2023-03-14T06:42:47;8.90;99.90
52675;DHT22;38569;52.722;6.440;2023-03-14T06:45:13;8.90;99.90
52675;DHT22;38569;52.722;6.440;2023-03-14T06:47:39;8.90;99.90
52675;DHT22;38569;52.722;6.440;2023-03-14T06:50:07;8.90;99.90
52675;DHT22;38569;52.722;6.440;2023-03-14T06:52:33;8.90;99.90
52675;DHT22;38569;52.722;6.440;2023-03-14T06:54:58;8.90;99.90
52675;DHT22;38569;52.722;6.440;2023-03-14T06:57:24;8.90;99.90
52675;DHT22;38569;52.722;6.440;2023-03-14T06:59:50;9.00;99.90
52675;DHT22;38569;52.722;6.440;2023-03-14T07:02:15;8.90;99.90
52675;DHT22;38569;52.722;6.440;2023-03-14T07:04:41;8.90;99.90
52675;DHT22;38569;52.722;6.440;2023-03-14T07:07:07;8.90;99.90
52675;DHT22;38569;52.722;6.440;2023-03-14T07:09:33;8.90;99.90
52675;DHT22;38569;52.722;6.440;2023-03-14T07:11:59;8.80;99.90
52675;DHT22;38569;52.722;6.440;2023-03-14T07:14:25;8.80;99.90
52675;DHT22;38569;52.722;6.440;2023-03-14T07:16:51;8.60;99.90
52675;DHT22;38569;52.722;6.440;2023-03-14T07:19:17;8.60;99.90
52675;DHT22;38569;52.722;6.440;2023-03-14T07:21:42;8.50;99.90
52675;DHT22;38569;52.722;6.440;2023-03-14T07:24:08;8.40;99.90
52675;DHT22;38569;52.722;6.440;2023-03-14T07:26:34;8.40;99.90
52675;DHT22;38569;52.722;6.440;2023-03-14T07:29:00;8.30;99.90
52675;DHT22;38569;52.722;6.440;2023-03-14T07:31:29;8.20;99.90
52675;DHT22;38569;52.722;6.440;2023-03-14T07:33:55;8.10;99.90
52675;DHT22;38569;52.722;6.440;2023-03-14T07:36:21;8.10;99.90
52675;DHT22;38569;52.722;6.440;2023-03-14T07:38:47;8.00;99.90
52675;DHT22;38569;52.722;6.440;2023-03-14T07:41:13;7.70;99.90
52675;DHT22;38569;52.722;6.440;2023-03-14T07:43:39;7.50;99.90
52675;DHT22;38569;52.722;6.440;2023-03-14T07:46:05;7.30;99.90
52675;DHT22;38569;52.722;6.440;2023-03-14T07:48:31;7.00;99.90
52675;DHT22;38569;52.722;6.440;2023-03-14T07:50:57;6.70;99.90
52675;DHT22;38569;52.722;6.440;2023-03-14T07:53:23;6.40;99.90
52675;DHT22;38569;52.722;6.440;2023-03-14T07:55:51;6.20;99.90
52675;DHT22;38569;52.722;6.440;2023-03-14T07:58:18;6.00;99.90
52675;DHT22;38569;52.722;6.440;2023-03-14T08:00:44;5.90;99.90
52675;DHT22;38569;52.722;6.440;2023-03-14T08:03:10;5.90;99.90
52675;DHT22;38569;52.722;6.440;2023-03-14T08:05:36;5.80;99.90
52675;DHT22;38569;52.722;6.440;2023-03-14T08:08:03;5.70;99.90
52675;DHT22;38569;52.722;6.440;2023-03-14T08:10:29;5.60;99.90
52675;DHT22;38569;52.722;6.440;2023-03-14T08:12:57;5.40;99.90
52675;DHT22;38569;52.722;6.440;2023-03-14T08:15:23;5.30;99.90
52675;DHT22;38569;52.722;6.440;2023-03-14T08:17:49;5.20;99.90
52675;DHT22;38569;52.722;6.440;2023-03-14T08:20:27;5.20;99.90
52675;DHT22;38569;52.722;6.440;2023-03-14T08:22:59;5.20;99.90
52675;DHT22;38569;52.722;6.440;2023-03-14T08:25:26;5.10;99.90
52675;DHT22;38569;52.722;6.440;2023-03-14T08:27:52;5.10;99.90
52675;DHT22;38569;52.722;6.440;2023-03-14T08:30:19;5.00;99.90
52675;DHT22;38569;52.722;6.440;2023-03-14T08:32:45;4.90;99.90
52675;DHT22;38569;52.722;6.440;2023-03-14T08:35:11;4.90;99.90
52675;DHT22;38569;52.722;6.440;2023-03-14T08:37:37;4.90;99.90
52675;DHT22;38569;52.722;6.440;2023-03-14T08:40:05;4.90;99.90
52675;DHT22;38569;52.722;6.440;2023-03-14T08:42:36;4.90;99.90
52675;DHT22;38569;52.722;6.440;2023-03-14T08:45:03;4.80;99.90
52675;DHT22;38569;52.722;6.440;2023-03-14T08:47:28;5.00;99.90
52675;DHT22;38569;52.722;6.440;2023-03-14T08:49:54;5.00;99.90
52675;DHT22;38569;52.722;6.440;2023-03-14T08:52:20;5.00;99.90
52675;DHT22;38569;52.722;6.440;2023-03-14T08:54:46;5.00;99.90
52675;DHT22;38569;52.722;6.440;2023-03-14T08:57:12;5.00;99.90
52675;DHT22;38569;52.722;6.440;2023-03-14T08:59:37;5.00;99.90
52675;DHT22;38569;52.722;6.440;2023-03-14T09:02:04;5.00;99.90
52675;DHT22;38569;52.722;6.440;2023-03-14T09:04:35;5.10;99.90
52675;DHT22;38569;52.722;6.440;2023-03-14T09:07:01;5.20;99.90
52675;DHT22;38569;52.722;6.440;2023-03-14T09:09:27;5.20;99.90
52675;DHT22;38569;52.722;6.440;2023-03-14T09:11:53;5.30;99.90
52675;DHT22;38569;52.722;6.440;2023-03-14T09:14:19;5.40;99.90
52675;DHT22;38569;52.722;6.440;2023-03-14T09:16:44;5.60;99.90
52675;DHT22;38569;52.722;6.440;2023-03-14T09:19:10;5.60;99.90
52675;DHT22;38569;52.722;6.440;2023-03-14T09:21:36;5.60;99.90
52675;DHT22;38569;52.722;6.440;2023-03-14T09:24:04;5.60;99.90
52675;DHT22;38569;52.722;6.440;2023-03-14T09:26:30;5.60;99.90
52675;DHT22;38569;52.722;6.440;2023-03-14T09:28:55;5.60;99.90
52675;DHT22;38569;52.722;6.440;2023-03-14T09:31:21;5.70;99.90
52675;DHT22;38569;52.722;6.440;2023-03-14T09:33:47;6.00;99.90
52675;DHT22;38569;52.722;6.440;2023-03-14T09:36:12;6.00;99.90
52675;DHT22;38569;52.722;6.440;2023-03-14T09:38:38;5.90;99.90
52675;DHT22;38569;52.722;6.440;2023-03-14T09:41:29;6.00;99.90
52675;DHT22;38569;52.722;6.440;2023-03-14T09:44:21;6.00;99.90
52675;DHT22;38569;52.722;6.440;2023-03-14T09:46:52;6.20;99.90
52675;DHT22;38569;52.722;6.440;2023-03-14T09:49:23;6.10;99.90
52675;DHT22;38569;52.722;6.440;2023-03-14T09:51:53;6.10;99.90
52675;DHT22;38569;52.722;6.440;2023-03-14T09:54:50;6.20;99.90
52675;DHT22;38569;52.722;6.440;2023-03-14T09:57:23;6.30;99.90
52675;DHT22;38569;52.722;6.440;2023-03-14T09:59:50;6.40;99.90
52675;DHT22;38569;52.722;6.440;2023-03-14T10:02:23;6.60;99.90
52675;DHT22;38569;52.722;6.440;2023-03-14T10:04:51;6.60;99.90
52675;DHT22;38569;52.722;6.440;2023-03-14T10:07:29;6.70;99.90
52675;DHT22;38569;52.722;6.440;2023-03-14T10:09:55;6.80;99.90
52675;DHT22;38569;52.722;6.440;2023-03-14T10:12:31;6.90;99.90
52675;DHT22;38569;52.722;6.440;2023-03-14T10:15:12;6.90;99.90
52675;DHT22;38569;52.722;6.440;2023-03-14T10:17:42;6.90;99.90
52675;DHT22;38569;52.722;6.440;2023-03-14T10:20:27;6.90;99.90
52675;DHT22;38569;52.722;6.440;2023-03-14T10:22:57;6.80;99.90
52675;DHT22;38569;52.722;6.440;2023-03-14T10:25:27;6.60;99.90
52675;DHT22;38569;52.722;6.440;2023-03-14T10:27:53;6.30;99.90
52675;DHT22;38569;52.722;6.440;2023-03-14T10:33:30;5.70;99.90
52675;DHT22;38569;52.722;6.440;2023-03-14T10:38:45;5.90;99.90
52675;DHT22;38569;52.722;6.440;2023-03-14T10:41:31;6.30;99.90
52675;DHT22;38569;52.722;6.440;2023-03-14T10:43:59;6.40;99.90
52675;DHT22;38569;52.722;6.440;2023-03-14T10:46:29;6.60;99.90
52675;DHT22;38569;52.722;6.440;2023-03-14T10:48:56;6.60;99.90
52675;DHT22;38569;52.722;6.440;2023-03-14T10:51:28;6.50;99.90
52675;DHT22;38569;52.722;6.440;2023-03-14T10:54:04;6.40;99.90
52675;DHT22;38569;52.722;6.440;2023-03-14T10:56:37;6.50;99.90
52675;DHT22;38569;52.722;6.440;2023-03-14T10:59:07;6.80;99.90
52675;DHT22;38569;52.722;6.440;2023-03-14T11:01:54;7.10;99.90
52675;DHT22;38569;52.722;6.440;2023-03-14T11:07:09;7.70;99.90
52675;DHT22;38569;52.722;6.440;2023-03-14T11:19:06;7.50;99.90
52675;DHT22;38569;52.722;6.440;2023-03-14T11:21:58;7.30;99.90
52675;DHT22;38569;52.722;6.440;2023-03-14T11:32:12;7.80;99.90
52675;DHT22;38569;52.722;6.440;2023-03-14T11:34:54;7.90;99.90
52675;DHT22;38569;52.722;6.440;2023-03-14T11:37:32;8.30;99.90
52675;DHT22;38569;52.722;6.440;2023-03-14T11:40:21;8.40;99.90
52675;DHT22;38569;52.722;6.440;2023-03-14T11:45:31;7.90;99.90
52675;DHT22;38569;52.722;6.440;2023-03-14T11:50:39;9.00;99.20
52675;DHT22;38569;52.722;6.440;2023-03-14T11:53:14;9.10;98.90
52675;DHT22;38569;52.722;6.440;2023-03-14T11:55:42;9.30;97.80
52675;DHT22;38569;52.722;6.440;2023-03-14T11:58:19;9.80;99.30
52675;DHT22;38569;52.722;6.440;2023-03-14T12:00:47;10.50;99.20
52675;DHT22;38569;52.722;6.440;2023-03-14T12:03:35;11.60;96.90
52675;DHT22;38569;52.722;6.440;2023-03-14T12:08:52;11.80;91.50
52675;DHT22;38569;52.722;6.440;2023-03-14T12:11:36;11.50;86.70
52675;DHT22;38569;52.722;6.440;2023-03-14T12:16:46;12.40;86.90
52675;DHT22;38569;52.722;6.440;2023-03-14T12:19:21;11.60;73.10
52675;DHT22;38569;52.722;6.440;2023-03-14T12:24:26;10.40;71.40
52675;DHT22;38569;52.722;6.440;2023-03-14T12:26:56;10.30;72.60
52675;DHT22;38569;52.722;6.440;2023-03-14T12:29:22;10.10;72.60
52675;DHT22;38569;52.722;6.440;2023-03-14T12:31:49;10.00;75.50
52675;DHT22;38569;52.722;6.440;2023-03-14T12:34:34;9.80;74.40
52675;DHT22;38569;52.722;6.440;2023-03-14T12:42:37;9.70;74.20
52675;DHT22;38569;52.722;6.440;2023-03-14T12:45:33;9.90;74.90
52675;DHT22;38569;52.722;6.440;2023-03-14T12:48:26;9.60;72.80
52675;DHT22;38569;52.722;6.440;2023-03-14T12:51:02;10.10;76.00
52675;DHT22;38569;52.722;6.440;2023-03-14T12:53:38;10.70;75.00
52675;DHT22;38569;52.722;6.440;2023-03-14T13:01:52;10.20;77.40
52675;DHT22;38569;52.722;6.440;2023-03-14T13:04:18;10.30;78.00
52675;DHT22;38569;52.722;6.440;2023-03-14T13:06:52;10.30;76.00
52675;DHT22;38569;52.722;6.440;2023-03-14T13:11:53;10.20;79.90
52675;DHT22;38569;52.722;6.440;2023-03-14T13:14:19;10.10;76.50
52675;DHT22;38569;52.722;6.440;2023-03-14T13:16:46;9.90;75.70
52675;DHT22;38569;52.722;6.440;2023-03-14T13:19:25;9.40;78.90
52675;DHT22;38569;52.722;6.440;2023-03-14T13:22:06;9.20;82.00
52675;DHT22;38569;52.722;6.440;2023-03-14T13:24:39;9.30;80.00
52675;DHT22;38569;52.722;6.440;2023-03-14T13:27:18;9.40;79.10
52675;DHT22;38569;52.722;6.440;2023-03-14T13:29:50;9.90;80.30
52675;DHT22;38569;52.722;6.440;2023-03-14T13:32:26;10.30;75.80
52675;DHT22;38569;52.722;6.440;2023-03-14T13:34:55;10.90;75.80
52675;DHT22;38569;52.722;6.440;2023-03-14T13:37:23;10.60;68.80
52675;DHT22;38569;52.722;6.440;2023-03-14T13:39:55;9.80;68.40
52675;DHT22;38569;52.722;6.440;2023-03-14T13:42:25;9.40;73.00
52675;DHT22;38569;52.722;6.440;2023-03-14T13:44:53;9.20;72.70
52675;DHT22;38569;52.722;6.440;2023-03-14T13:47:20;9.40;72.70
52675;DHT22;38569;52.722;6.440;2023-03-14T13:49:47;9.70;72.20
52675;DHT22;38569;52.722;6.440;2023-03-14T13:54:57;10.10;65.20
52675;DHT22;38569;52.722;6.440;2023-03-14T13:57:24;9.80;65.90
52675;DHT22;38569;52.722;6.440;2023-03-14T14:00:06;9.70;66.50
52675;DHT22;38569;52.722;6.440;2023-03-14T14:02:36;9.50;68.60
52675;DHT22;38569;52.722;6.440;2023-03-14T14:05:03;9.50;68.40
52675;DHT22;38569;52.722;6.440;2023-03-14T14:07:30;9.60;69.70
52675;DHT22;38569;52.722;6.440;2023-03-14T14:09:56;9.70;66.40
52675;DHT22;38569;52.722;6.440;2023-03-14T14:12:53;9.60;66.00
52675;DHT22;38569;52.722;6.440;2023-03-14T14:15:31;9.30;65.80
52675;DHT22;38569;52.722;6.440;2023-03-14T14:18:04;9.30;67.00
52675;DHT22;38569;52.722;6.440;2023-03-14T14:20:45;9.50;70.10
52675;DHT22;38569;52.722;6.440;2023-03-14T14:23:20;9.80;67.00
52675;DHT22;38569;52.722;6.440;2023-03-14T14:25:52;10.10;69.40
52675;DHT22;38569;52.722;6.440;2023-03-14T14:31:22;9.70;66.00
52675;DHT22;38569;52.722;6.440;2023-03-14T14:34:00;9.00;65.50
52675;DHT22;38569;52.722;6.440;2023-03-14T14:39:05;8.90;67.70
52675;DHT22;38569;52.722;6.440;2023-03-14T14:41:35;9.20;67.20
52675;DHT22;38569;52.722;6.440;2023-03-14T14:44:05;9.50;68.70
52675;DHT22;38569;52.722;6.440;2023-03-14T14:46:32;9.70;69.20
52675;DHT22;38569;52.722;6.440;2023-03-14T14:49:09;9.90;70.40
52675;DHT22;38569;52.722;6.440;2023-03-14T14:51:43;10.00;69.70
52675;DHT22;38569;52.722;6.440;2023-03-14T14:54:15;9.70;68.30
52675;DHT22;38569;52.722;6.440;2023-03-14T14:56:52;9.60;69.20
52675;DHT22;38569;52.722;6.440;2023-03-14T14:59:22;9.60;70.80
52675;DHT22;38569;52.722;6.440;2023-03-14T15:01:48;9.50;71.00
52675;DHT22;38569;52.722;6.440;2023-03-14T15:04:16;9.70;72.10
52675;DHT22;38569;52.722;6.440;2023-03-14T15:06:44;9.70;69.70
52675;DHT22;38569;52.722;6.440;2023-03-14T15:09:12;9.90;67.70
52675;DHT22;38569;52.722;6.440;2023-03-14T15:11:38;9.70;64.70
52675;DHT22;38569;52.722;6.440;2023-03-14T15:14:04;9.70;65.80
52675;DHT22;38569;52.722;6.440;2023-03-14T15:16:30;9.50;64.00
52675;DHT22;38569;52.722;6.440;2023-03-14T15:18:59;9.00;62.00
52675;DHT22;38569;52.722;6.440;2023-03-14T15:21:27;9.00;66.00
52675;DHT22;38569;52.722;6.440;2023-03-14T15:23:53;8.90;67.30
52675;DHT22;38569;52.722;6.440;2023-03-14T15:26:21;8.80;66.20
52675;DHT22;38569;52.722;6.440;2023-03-14T15:28:47;8.80;67.60
52675;DHT22;38569;52.722;6.440;2023-03-14T15:31:14;8.90;65.90
52675;DHT22;38569;52.722;6.440;2023-03-14T15:33:41;8.80;66.30
52675;DHT22;38569;52.722;6.440;2023-03-14T15:38:47;8.60;67.30
52675;DHT22;38569;52.722;6.440;2023-03-14T15:41:13;8.30;68.00
52675;DHT22;38569;52.722;6.440;2023-03-14T15:43:41;8.10;69.10
52675;DHT22;38569;52.722;6.440;2023-03-14T15:46:09;8.00;70.60
52675;DHT22;38569;52.722;6.440;2023-03-14T15:48:35;7.90;72.20
52675;DHT22;38569;52.722;6.440;2023-03-14T15:51:00;7.80;78.20
52675;DHT22;38569;52.722;6.440;2023-03-14T15:53:26;7.60;83.10
52675;DHT22;38569;52.722;6.440;2023-03-14T15:55:52;7.30;84.30
52675;DHT22;38569;52.722;6.440;2023-03-14T15:58:19;7.20;85.00
52675;DHT22;38569;52.722;6.440;2023-03-14T16:00:45;7.20;86.20
52675;DHT22;38569;52.722;6.440;2023-03-14T16:03:11;7.10;86.30
52675;DHT22;38569;52.722;6.440;2023-03-14T16:05:39;7.00;87.00
52675;DHT22;38569;52.722;6.440;2023-03-14T16:08:05;6.90;87.40
52675;DHT22;38569;52.722;6.440;2023-03-14T16:10:31;6.80;87.30
52675;DHT22;38569;52.722;6.440;2023-03-14T16:12:57;6.70;87.50
52675;DHT22;38569;52.722;6.440;2023-03-14T16:15:23;6.70;87.80
52675;DHT22;38569;52.722;6.440;2023-03-14T16:17:55;6.60;88.20
52675;DHT22;38569;52.722;6.440;2023-03-14T16:20:21;6.50;88.80
52675;DHT22;38569;52.722;6.440;2023-03-14T16:22:47;6.50;88.70
52675;DHT22;38569;52.722;6.440;2023-03-14T16:25:13;6.60;89.30
52675;DHT22;38569;52.722;6.440;2023-03-14T16:27:40;6.60;88.80
52675;DHT22;38569;52.722;6.440;2023-03-14T16:30:07;6.60;87.80
52675;DHT22;38569;52.722;6.440;2023-03-14T16:32:34;6.50;88.10
52675;DHT22;38569;52.722;6.440;2023-03-14T16:35:00;6.60;88.20
52675;DHT22;38569;52.722;6.440;2023-03-14T16:37:26;6.50;87.20
52675;DHT22;38569;52.722;6.440;2023-03-14T16:39:52;6.40;87.50
52675;DHT22;38569;52.722;6.440;2023-03-14T16:42:19;6.30;85.90
52675;DHT22;38569;52.722;6.440;2023-03-14T16:44:45;6.20;85.10
52675;DHT22;38569;52.722;6.440;2023-03-14T16:47:11;6.10;88.00
52675;DHT22;38569;52.722;6.440;2023-03-14T16:49:37;5.90;92.20
52675;DHT22;38569;52.722;6.440;2023-03-14T16:52:03;5.80;96.00
52675;DHT22;38569;52.722;6.440;2023-03-14T16:54:29;5.70;98.80
52675;DHT22;38569;52.722;6.440;2023-03-14T16:56:54;5.70;99.90
52675;DHT22;38569;52.722;6.440;2023-03-14T16:59:20;5.70;99.90
52675;DHT22;38569;52.722;6.440;2023-03-14T17:01:46;5.70;99.90